createdAt,value
2019-05-25T00:00:06.531Z,69.02
2019-05-25T00:02:13.193Z,68.16
2019-05-25T00:04:19.677Z,67.92
2019-05-25T00:06:26.054Z,68.13
2019-05-25T00:08:32.922Z,68.26
2019-05-25T00:10:39.528Z,68.40
2019-05-25T00:12:45.943Z,69.00
2019-05-25T00:14:52.310Z,69.66
2019-05-25T00:16:58.672Z,69.73
2019-05-25T00:19:06.589Z,70.29
2019-05-25T00:21:14.352Z,69.72
2019-05-25T00:23:20.834Z,70.04
2019-05-25T00:25:28.934Z,69.94
2019-05-25T00:27:35.193Z,70.13
2019-05-25T00:29:45.556Z,70.20
2019-05-25T00:31:52.122Z,69.82
2019-05-25T00:33:58.879Z,69.92
2019-05-25T00:36:05.557Z,70.39
2019-05-25T00:38:11.926Z,70.55
2019-05-25T00:40:20.647Z,69.87
2019-05-25T00:42:27.942Z,69.60
2019-05-25T00:44:34.195Z,69.51
2019-05-25T00:46:40.552Z,69.57
2019-05-25T00:48:47.039Z,69.75
2019-05-25T00:50:53.389Z,69.55
2019-05-25T00:52:59.845Z,69.59
2019-05-25T00:55:08.970Z,69.82
2019-05-25T00:57:15.423Z,70.08
2019-05-25T00:59:22.011Z,70.26
2019-05-25T01:01:28.391Z,70.24
2019-05-25T01:03:34.725Z,70.45
2019-05-25T01:05:41.095Z,70.23
2019-05-25T01:07:47.458Z,70.30
2019-05-25T01:09:53.712Z,71.04
2019-05-25T01:12:00.215Z,71.06
2019-05-25T01:14:07.177Z,70.90
2019-05-25T01:16:13.526Z,70.82
2019-05-25T01:18:23.079Z,70.89
2019-05-25T01:20:29.980Z,71.43
2019-05-25T01:22:36.503Z,71.10
2019-05-25T01:24:44.716Z,71.56
2019-05-25T01:26:50.752Z,71.79
2019-05-25T01:28:57.758Z,72.92
2019-05-25T01:31:04.731Z,72.14
2019-05-25T01:33:10.964Z,72.62
2019-05-25T01:35:18.784Z,72.45
2019-05-25T01:37:25.018Z,72.61
2019-05-25T01:39:31.609Z,72.87
2019-05-25T01:41:37.843Z,72.89
2019-05-25T01:43:44.146Z,72.87
2019-05-25T01:45:52.109Z,73.13
2019-05-25T01:47:58.392Z,72.94
2019-05-25T01:50:06.379Z,73.13
2019-05-25T01:52:12.853Z,73.29
2019-05-25T01:54:19.102Z,73.45
2019-05-25T01:56:25.371Z,73.72
2019-05-25T01:58:31.635Z,74.45
2019-05-25T02:00:38.591Z,74.67
2019-05-25T02:02:44.965Z,74.85
2019-05-25T02:04:51.238Z,74.65
2019-05-25T02:06:57.695Z,75.62
2019-05-25T02:09:04.664Z,75.23
2019-05-25T02:11:11.341Z,75.53
2019-05-25T02:13:17.595Z,75.12
2019-05-25T02:15:24.080Z,75.09
2019-05-25T02:17:30.520Z,75.38
2019-05-25T02:19:37.103Z,75.13
2019-05-25T02:21:43.966Z,75.17
2019-05-25T02:23:50.428Z,75.35
2019-05-25T02:25:56.799Z,75.49
2019-05-25T02:28:03.057Z,75.38
2019-05-25T02:30:11.776Z,75.81
2019-05-25T02:32:19.775Z,75.61
2019-05-25T02:34:26.239Z,75.40
2019-05-25T02:36:32.928Z,75.42
2019-05-25T02:38:40.200Z,75.44
2019-05-25T02:40:46.570Z,75.31
2019-05-25T02:42:54.463Z,75.28
2019-05-25T02:45:00.839Z,75.11
2019-05-25T02:47:08.711Z,75.01
2019-05-25T02:49:17.505Z,74.84
2019-05-25T02:51:23.789Z,75.00
2019-05-25T02:53:30.773Z,74.81
2019-05-25T02:55:37.249Z,74.69
2019-05-25T02:57:43.604Z,74.65
2019-05-25T02:59:49.887Z,74.72
2019-05-25T03:01:56.333Z,74.65
2019-05-25T03:04:03.729Z,74.66
2019-05-25T03:06:11.946Z,74.42
2019-05-25T03:08:18.601Z,74.31
2019-05-25T03:10:24.948Z,74.20
2019-05-25T03:12:32.885Z,73.96
2019-05-25T03:14:39.613Z,73.85
2019-05-25T03:16:45.908Z,73.91
2019-05-25T03:18:52.265Z,73.41
2019-05-25T03:20:58.619Z,72.91
2019-05-25T03:23:04.879Z,72.99
2019-05-25T03:25:11.725Z,72.91
2019-05-25T03:27:18.118Z,72.76
2019-05-25T03:29:26.087Z,72.99
2019-05-25T03:31:32.387Z,72.43
2019-05-25T03:33:39.836Z,72.21
2019-05-25T03:35:48.105Z,72.34
2019-05-25T03:37:54.529Z,71.14
2019-05-25T03:40:00.793Z,68.85
2019-05-25T03:42:07.037Z,66.26
2019-05-25T03:44:13.426Z,62.21
2019-05-25T03:46:20.507Z,57.66
2019-05-25T03:48:26.735Z,57.55
2019-05-25T03:50:33.029Z,55.34
2019-05-25T03:52:39.559Z,54.42
2019-05-25T03:54:45.940Z,53.99
2019-05-25T03:56:52.403Z,54.71
2019-05-25T03:58:58.782Z,53.29
2019-05-25T04:01:05.249Z,52.85
2019-05-25T04:03:11.492Z,53.05
2019-05-25T04:05:17.765Z,51.24
2019-05-25T04:07:24.746Z,51.41
2019-05-25T04:09:31.084Z,50.41
2019-05-25T04:11:37.383Z,49.21
2019-05-25T04:13:43.821Z,48.06
2019-05-25T04:15:50.179Z,47.86
2019-05-25T04:17:56.635Z,46.29
2019-05-25T04:20:02.908Z,45.33
2019-05-25T04:22:09.274Z,44.79
2019-05-25T04:24:18.315Z,44.38
2019-05-25T04:26:27.447Z,44.80
2019-05-25T04:28:32.476Z,44.05
2019-05-25T04:30:38.822Z,44.29
2019-05-25T04:32:45.060Z,44.82
2019-05-25T04:34:55.557Z,45.88
2019-05-25T04:37:02.018Z,45.68
2019-05-25T04:39:09.421Z,46.57
2019-05-25T04:41:15.745Z,47.14
2019-05-25T04:43:22.128Z,46.11
2019-05-25T04:45:28.891Z,46.84
2019-05-25T04:47:35.296Z,46.39
2019-05-25T04:49:43.046Z,46.26
2019-05-25T04:51:49.314Z,46.16
2019-05-25T04:53:55.938Z,45.07
2019-05-25T04:56:03.147Z,45.71
2019-05-25T04:58:09.527Z,46.58
2019-05-25T05:00:16.509Z,47.09
2019-05-25T05:02:23.074Z,48.11
2019-05-25T05:04:29.433Z,50.25
2019-05-25T05:06:35.806Z,51.36
2019-05-25T05:08:42.178Z,53.05
2019-05-25T05:10:48.529Z,54.41
2019-05-25T05:12:56.164Z,54.34
2019-05-25T05:15:02.495Z,53.37
2019-05-25T05:17:08.859Z,52.06
2019-05-25T05:19:15.210Z,52.13
2019-05-25T05:21:21.659Z,52.72
2019-05-25T05:23:28.219Z,54.28
2019-05-25T05:25:34.596Z,55.61
2019-05-25T05:27:40.964Z,55.97
2019-05-25T05:29:47.322Z,56.05
2019-05-25T05:31:53.687Z,55.72
2019-05-25T05:34:00.760Z,55.09
2019-05-25T05:36:08.707Z,55.76
2019-05-25T05:38:16.357Z,55.55
2019-05-25T05:40:22.609Z,55.89
2019-05-25T05:42:31.446Z,56.71
2019-05-25T05:44:42.829Z,56.91
2019-05-25T05:46:50.387Z,56.89
2019-05-25T05:48:58.169Z,56.85
2019-05-25T05:51:06.117Z,56.84
2019-05-25T05:53:12.794Z,57.30
2019-05-25T05:55:23.536Z,56.76
2019-05-25T05:57:29.900Z,56.60
2019-05-25T05:59:36.256Z,56.23
2019-05-25T06:01:42.635Z,56.05
2019-05-25T06:03:48.981Z,56.51
2019-05-25T06:05:55.363Z,56.39
2019-05-25T06:08:01.708Z,56.01
2019-05-25T06:10:10.060Z,56.62
2019-05-25T06:12:16.381Z,56.32
2019-05-25T06:14:22.759Z,56.38
2019-05-25T06:16:29.170Z,56.70
2019-05-25T06:18:35.480Z,56.96
2019-05-25T06:20:41.736Z,57.19
2019-05-25T06:22:48.103Z,57.30
2019-05-25T06:24:54.562Z,57.82
2019-05-25T06:27:00.924Z,56.95
2019-05-25T06:29:07.284Z,57.84
2019-05-25T06:31:13.746Z,58.08
2019-05-25T06:33:19.994Z,57.87
2019-05-25T06:35:26.282Z,56.84
2019-05-25T06:37:32.833Z,56.85
2019-05-25T06:39:39.194Z,57.29
2019-05-25T06:41:47.013Z,57.49
2019-05-25T06:43:53.345Z,57.55
2019-05-25T06:45:59.739Z,57.67
2019-05-25T06:48:06.608Z,57.85
2019-05-25T06:50:14.906Z,57.98
2019-05-25T06:52:22.186Z,58.32
2019-05-25T06:54:28.655Z,56.89
2019-05-25T06:56:35.325Z,57.44
2019-05-25T06:58:42.192Z,56.79
2019-05-25T07:00:55.801Z,56.63
2019-05-25T07:03:02.085Z,56.26
2019-05-25T07:05:10.373Z,57.84
2019-05-25T07:07:16.653Z,57.10
2019-05-25T07:09:23.027Z,58.36
2019-05-25T07:11:29.591Z,57.86
2019-05-25T07:13:35.842Z,57.94
2019-05-25T07:15:42.208Z,58.41
2019-05-25T07:17:49.233Z,57.95
2019-05-25T07:19:55.676Z,58.11
2019-05-25T07:22:02.106Z,57.88
2019-05-25T07:24:08.479Z,58.08
2019-05-25T07:26:15.042Z,57.23
2019-05-25T07:28:21.522Z,57.50
2019-05-25T07:30:27.882Z,57.91
2019-05-25T07:32:34.259Z,57.19
2019-05-25T07:34:40.647Z,56.99
2019-05-25T07:36:48.083Z,55.72
2019-05-25T07:38:54.451Z,56.17
2019-05-25T07:41:00.713Z,56.74
2019-05-25T07:43:07.101Z,55.91
2019-05-25T07:45:15.189Z,56.47
2019-05-25T07:47:22.154Z,55.15
2019-05-25T07:49:28.418Z,55.06
2019-05-25T07:51:34.773Z,55.65
2019-05-25T07:53:41.042Z,54.79
2019-05-25T07:55:47.297Z,54.91
2019-05-25T07:57:53.790Z,55.40
2019-05-25T08:00:00.027Z,55.88
2019-05-25T08:02:06.394Z,55.50
2019-05-25T08:04:13.975Z,54.25
2019-05-25T08:06:20.359Z,54.56
2019-05-25T08:08:26.601Z,54.41
2019-05-25T08:10:32.878Z,54.88
2019-05-25T08:12:40.154Z,53.65
2019-05-25T08:14:47.115Z,53.95
2019-05-25T08:16:53.392Z,53.95
2019-05-25T08:18:59.643Z,54.09
2019-05-25T08:21:06.320Z,52.99
2019-05-25T08:23:12.689Z,53.59
2019-05-25T08:25:19.555Z,52.90
2019-05-25T08:27:25.812Z,53.34
2019-05-25T08:29:32.062Z,52.55
2019-05-25T08:31:38.441Z,52.40
2019-05-25T08:33:44.807Z,52.08
2019-05-25T08:38:03.074Z,51.79
2019-05-25T08:40:10.020Z,52.04
2019-05-25T08:42:18.242Z,51.80
2019-05-25T08:44:24.593Z,50.82
2019-05-25T08:46:31.368Z,50.84
2019-05-25T08:48:38.138Z,51.12
2019-05-25T08:50:44.417Z,52.56
2019-05-25T08:52:50.868Z,51.70
2019-05-25T08:54:58.261Z,52.33
2019-05-25T08:57:04.622Z,52.11
2019-05-25T08:59:10.993Z,52.72
2019-05-25T09:01:17.230Z,50.82
2019-05-25T09:03:23.596Z,50.24
2019-05-25T09:05:30.263Z,49.11
2019-05-25T09:07:36.532Z,49.71
2019-05-25T09:09:42.898Z,50.10
2019-05-25T09:11:49.275Z,49.63
2019-05-25T09:13:56.133Z,50.03
2019-05-25T09:16:03.000Z,50.79
2019-05-25T09:18:11.020Z,50.33
2019-05-25T09:20:38.168Z,49.62
2019-05-25T09:22:46.261Z,48.33
2019-05-25T09:24:52.539Z,48.25
2019-05-25T09:26:59.099Z,48.71
2019-05-25T09:29:05.574Z,49.04
2019-05-25T09:31:11.915Z,47.97
2019-05-25T09:33:19.421Z,48.17
2019-05-25T09:35:25.677Z,48.56
2019-05-25T09:37:32.548Z,47.84
2019-05-25T09:39:39.520Z,48.31
2019-05-25T09:41:45.777Z,47.06
2019-05-25T09:43:52.452Z,48.65
2019-05-25T09:45:58.802Z,47.51
2019-05-25T09:48:05.253Z,47.81
2019-05-25T09:50:13.718Z,47.93
2019-05-25T09:52:20.269Z,48.21
2019-05-25T09:54:26.648Z,48.11
2019-05-25T09:56:32.996Z,47.33
2019-05-25T09:58:39.572Z,48.49
2019-05-25T10:00:46.022Z,48.03
2019-05-25T10:02:52.448Z,48.50
2019-05-25T10:04:58.763Z,47.92
2019-05-25T10:07:05.218Z,47.53
2019-05-25T10:09:13.110Z,46.62
2019-05-25T10:11:19.351Z,46.47
2019-05-25T10:13:25.659Z,47.33
2019-05-25T10:15:31.997Z,48.65
2019-05-25T10:17:53.550Z,47.98
2019-05-25T10:20:00.293Z,47.56
2019-05-25T10:22:07.585Z,47.69
2019-05-25T10:24:13.937Z,46.19
2019-05-25T10:26:23.020Z,46.77
2019-05-25T10:28:28.194Z,46.88
2019-05-25T10:30:34.646Z,47.30
2019-05-25T10:32:42.550Z,47.39
2019-05-25T10:34:49.329Z,47.26
2019-05-25T10:36:57.139Z,46.89
2019-05-25T10:39:03.703Z,46.22
2019-05-25T10:41:10.246Z,46.66
2019-05-25T10:43:16.609Z,46.73
2019-05-25T10:45:23.271Z,47.00
2019-05-25T10:47:29.638Z,47.19
2019-05-25T10:49:36.243Z,47.42
2019-05-25T10:51:43.389Z,46.67
2019-05-25T10:53:49.769Z,47.39
2019-05-25T10:55:56.031Z,46.24
2019-05-25T10:58:02.296Z,45.91
2019-05-25T11:00:13.765Z,45.97
2019-05-25T11:02:20.061Z,45.53
2019-05-25T11:04:26.706Z,45.59
2019-05-25T11:06:34.950Z,45.40
2019-05-25T11:08:41.165Z,45.60
2019-05-25T11:10:47.414Z,45.79
2019-05-25T11:12:56.251Z,46.36
2019-05-25T11:15:02.746Z,46.79
2019-05-25T11:17:09.182Z,46.95
2019-05-25T11:19:15.575Z,47.51
2019-05-25T11:21:21.895Z,47.50
2019-05-25T11:23:28.176Z,47.89
2019-05-25T11:25:34.513Z,47.98
2019-05-25T11:27:41.086Z,47.14
2019-05-25T11:29:47.458Z,47.60
2019-05-25T11:32:00.752Z,47.19
2019-05-25T11:34:03.665Z,47.08
2019-05-25T11:36:10.140Z,46.19
2019-05-25T11:38:16.599Z,46.83
2019-05-25T11:40:26.625Z,47.49
2019-05-25T11:42:34.165Z,47.46
2019-05-25T11:44:40.462Z,47.82
2019-05-25T11:46:46.752Z,47.42
2019-05-25T11:48:53.010Z,47.69
2019-05-25T11:50:59.574Z,47.91
2019-05-25T11:53:06.279Z,47.35
2019-05-25T11:55:13.325Z,47.81
2019-05-25T11:57:23.393Z,47.09
2019-05-25T11:59:29.731Z,48.62
2019-05-25T12:01:36.090Z,47.26
2019-05-25T12:03:42.363Z,47.05
2019-05-25T12:05:48.615Z,47.18
2019-05-25T12:07:54.890Z,47.27
2019-05-25T12:10:01.336Z,46.59
2019-05-25T12:12:08.110Z,46.67
2019-05-25T12:14:14.487Z,45.74
2019-05-25T12:16:20.747Z,45.79
2019-05-25T12:18:27.309Z,45.31
2019-05-25T12:20:33.773Z,45.25
2019-05-25T12:22:40.541Z,45.06
2019-05-25T12:24:47.107Z,45.43
2019-05-25T12:26:53.488Z,44.10
2019-05-25T12:28:59.833Z,44.48
2019-05-25T12:31:06.406Z,45.62
2019-05-25T12:33:12.774Z,44.56
2019-05-25T12:35:20.818Z,45.24
2019-05-25T12:37:27.136Z,44.86
2019-05-25T12:39:33.993Z,44.60
2019-05-25T12:41:40.472Z,44.65
2019-05-25T12:43:46.935Z,43.92
2019-05-25T12:45:56.374Z,44.38
2019-05-25T12:48:03.036Z,43.70
2019-05-25T12:50:11.209Z,44.58
2019-05-25T12:52:17.515Z,43.98
2019-05-25T12:54:23.768Z,42.95
2019-05-25T12:56:30.243Z,42.77
2019-05-25T12:58:38.653Z,43.75
2019-05-25T13:00:55.666Z,43.60
2019-05-25T13:02:54.551Z,43.96
2019-05-25T13:05:00.831Z,43.64
2019-05-25T13:07:07.284Z,43.41
2019-05-25T13:09:15.264Z,43.81
2019-05-25T13:11:21.741Z,43.77
2019-05-25T13:13:27.987Z,44.06
2019-05-25T13:15:35.806Z,43.48
2019-05-25T13:17:42.156Z,43.05
2019-05-25T13:19:49.978Z,43.28
2019-05-25T13:21:56.423Z,42.87
2019-05-25T13:24:02.780Z,43.34
2019-05-25T13:26:10.896Z,41.94
2019-05-25T13:28:17.382Z,41.78
2019-05-25T13:30:24.142Z,42.56
2019-05-25T13:32:30.902Z,43.22
2019-05-25T13:34:37.410Z,43.10
2019-05-25T13:36:46.903Z,42.53
2019-05-25T13:38:53.181Z,42.32
2019-05-25T13:40:59.533Z,41.62
2019-05-25T13:43:07.005Z,42.28
2019-05-25T13:45:13.589Z,41.35
2019-05-25T13:47:19.961Z,40.97
2019-05-25T13:49:26.324Z,42.02
2019-05-25T13:51:32.657Z,42.16
2019-05-25T13:53:40.879Z,42.35
2019-05-25T13:55:47.113Z,41.50
2019-05-25T13:57:54.426Z,40.97
2019-05-25T14:00:01.005Z,41.93
2019-05-25T14:02:09.816Z,41.30
2019-05-25T14:04:16.264Z,40.64
2019-05-25T14:06:22.525Z,41.14
2019-05-25T14:08:29.913Z,41.37
2019-05-25T14:10:36.171Z,41.79
2019-05-25T14:12:42.422Z,41.53
2019-05-25T14:14:49.001Z,42.42
2019-05-25T14:16:55.673Z,41.78
2019-05-25T14:19:01.923Z,41.35
2019-05-25T14:21:08.184Z,41.14
2019-05-25T14:23:14.441Z,41.21
2019-05-25T14:25:21.232Z,40.94
2019-05-25T14:27:27.600Z,40.62
2019-05-25T14:29:33.848Z,41.89
2019-05-25T14:31:45.479Z,42.35
2019-05-25T14:33:48.028Z,41.28
2019-05-25T14:35:54.594Z,41.07
2019-05-25T14:38:01.442Z,41.04
2019-05-25T14:40:11.512Z,41.26
2019-05-25T14:42:18.065Z,41.24
2019-05-25T14:44:26.783Z,41.20
2019-05-25T14:46:33.036Z,41.23
2019-05-25T14:48:39.515Z,41.31
2019-05-25T14:50:45.865Z,41.75
2019-05-25T14:52:52.551Z,42.07
2019-05-25T14:54:58.895Z,41.50
2019-05-25T14:57:05.277Z,41.04
2019-05-25T14:59:11.539Z,41.35
2019-05-25T15:01:18.034Z,40.82
2019-05-25T15:03:24.460Z,41.31
2019-05-25T15:05:30.927Z,40.85
2019-05-25T15:07:37.286Z,40.42
2019-05-25T15:09:43.651Z,39.83
2019-05-25T15:11:53.540Z,41.19
2019-05-25T15:13:58.005Z,40.22
2019-05-25T15:16:06.137Z,40.48
2019-05-25T15:18:13.121Z,39.65
2019-05-25T15:20:20.281Z,40.24
2019-05-25T15:22:26.535Z,39.90
2019-05-25T15:24:33.102Z,40.24
2019-05-25T15:26:39.368Z,40.55
2019-05-25T15:28:47.187Z,41.07
2019-05-25T15:30:53.931Z,41.48
2019-05-25T15:33:00.298Z,41.00
2019-05-25T15:35:11.111Z,40.89
2019-05-25T15:37:17.440Z,40.58
2019-05-25T15:39:23.842Z,41.18
2019-05-25T15:41:30.883Z,40.94
2019-05-25T15:43:38.355Z,41.01
2019-05-25T15:45:46.066Z,41.09
2019-05-25T15:47:53.157Z,41.59
2019-05-25T15:49:59.447Z,41.36
2019-05-25T15:52:06.764Z,41.96
2019-05-25T15:54:14.569Z,42.34
2019-05-25T15:56:21.962Z,42.46
2019-05-25T15:58:28.341Z,42.26
2019-05-25T16:00:52.032Z,41.75
2019-05-25T16:02:59.378Z,42.02
2019-05-25T16:05:07.037Z,42.62
2019-05-25T16:07:15.960Z,43.09
2019-05-25T16:09:22.345Z,44.09
2019-05-25T16:11:31.968Z,44.58
2019-05-25T16:13:38.454Z,44.85
2019-05-25T16:15:44.928Z,44.26
2019-05-25T16:17:51.497Z,43.60
2019-05-25T16:19:58.055Z,42.50
2019-05-25T16:22:04.333Z,42.90
2019-05-25T16:24:10.685Z,42.82
2019-05-25T16:26:16.965Z,42.63
2019-05-25T16:28:24.299Z,42.58
2019-05-25T16:30:31.489Z,42.47
2019-05-25T16:33:10.149Z,42.99
2019-05-25T16:34:47.711Z,42.40
2019-05-25T16:36:54.364Z,42.53
2019-05-25T16:39:03.217Z,42.93
2019-05-25T16:41:09.473Z,42.92
2019-05-25T16:43:15.825Z,43.46
2019-05-25T16:45:22.608Z,44.25
2019-05-25T16:47:28.854Z,45.57
2019-05-25T16:49:37.196Z,45.29
2019-05-25T16:51:43.544Z,45.92
2019-05-25T16:53:49.923Z,46.90
2019-05-25T16:55:57.999Z,47.61
2019-05-25T16:58:04.877Z,47.57
2019-05-25T17:00:14.604Z,47.85
2019-05-25T17:02:23.335Z,47.75
2019-05-25T17:04:29.709Z,48.39
2019-05-25T17:06:38.513Z,48.30
2019-05-25T17:08:44.777Z,48.62
2019-05-25T17:10:52.783Z,49.04
2019-05-25T17:12:59.345Z,49.30
2019-05-25T17:15:07.755Z,49.27
2019-05-25T17:17:14.329Z,48.96
2019-05-25T17:19:20.694Z,49.47
2019-05-25T17:21:27.456Z,50.12
2019-05-25T17:23:33.720Z,50.73
2019-05-25T17:25:40.235Z,50.93
2019-05-25T17:27:47.774Z,51.67
2019-05-25T17:29:55.274Z,51.77
2019-05-25T17:32:01.515Z,52.04
2019-05-25T17:34:07.992Z,52.13
2019-05-25T17:36:14.263Z,51.96
2019-05-25T17:38:21.634Z,52.08
2019-05-25T17:40:27.897Z,52.33
2019-05-25T17:42:35.179Z,52.82
2019-05-25T17:44:41.432Z,52.70
2019-05-25T17:46:47.801Z,53.16
2019-05-25T17:48:54.484Z,53.09
2019-05-25T17:51:01.051Z,53.31
2019-05-25T17:53:07.406Z,53.67
2019-05-25T17:55:14.530Z,53.75
2019-05-25T17:57:21.052Z,53.70
2019-05-25T17:59:27.915Z,53.98
2019-05-25T18:01:34.191Z,53.91
2019-05-25T18:03:40.657Z,54.42
2019-05-25T18:05:48.124Z,54.60
2019-05-25T18:07:54.400Z,54.84
2019-05-25T18:10:00.888Z,54.79
2019-05-25T18:12:07.228Z,55.18
2019-05-25T18:14:13.597Z,55.26
2019-05-25T18:16:21.467Z,55.63
2019-05-25T18:18:27.867Z,55.40
2019-05-25T18:20:34.620Z,55.78
2019-05-25T18:22:41.108Z,55.96
2019-05-25T18:24:47.665Z,56.20
2019-05-25T18:26:54.010Z,56.51
2019-05-25T18:29:00.270Z,56.29
2019-05-25T18:31:07.100Z,56.68
2019-05-25T18:33:13.320Z,56.85
2019-05-25T18:35:19.697Z,57.11
2019-05-25T18:37:27.578Z,57.13
2019-05-25T18:39:35.163Z,57.35
2019-05-25T18:41:43.170Z,57.44
2019-05-25T18:43:49.638Z,57.53
2019-05-25T18:45:55.991Z,57.90
2019-05-25T18:48:04.493Z,57.79
2019-05-25T18:50:12.939Z,57.67
2019-05-25T18:52:19.381Z,57.74
2019-05-25T18:54:27.341Z,58.33
2019-05-25T18:56:33.966Z,58.38
2019-05-25T18:58:40.334Z,58.58
2019-05-25T19:00:46.882Z,58.97
2019-05-25T19:02:53.878Z,59.29
2019-05-25T19:05:01.676Z,59.20
2019-05-25T19:07:08.136Z,59.29
2019-05-25T19:09:14.600Z,59.38
2019-05-25T19:11:20.962Z,58.96
2019-05-25T19:13:27.312Z,59.09
2019-05-25T19:15:35.202Z,59.18
2019-05-25T19:17:46.792Z,59.49
2019-05-25T19:19:53.248Z,59.75
2019-05-25T19:22:00.741Z,59.88
2019-05-25T19:24:07.309Z,59.90
2019-05-25T19:26:14.693Z,60.44
2019-05-25T19:28:22.838Z,60.49
2019-05-25T19:30:30.282Z,60.39
2019-05-25T19:32:36.886Z,60.53
2019-05-25T19:34:58.636Z,60.86
2019-05-25T19:36:52.342Z,61.59
2019-05-25T19:38:58.824Z,61.11
2019-05-25T19:41:05.350Z,61.01
2019-05-25T19:43:11.747Z,61.13
2019-05-25T19:45:19.949Z,61.16
2019-05-25T19:47:26.204Z,61.58
2019-05-25T19:49:32.564Z,61.48
2019-05-25T19:51:38.846Z,61.57
2019-05-25T19:53:45.409Z,61.96
2019-05-25T19:55:51.989Z,61.56
2019-05-25T19:57:59.565Z,61.75
2019-05-25T20:00:10.676Z,61.84
2019-05-25T20:02:17.001Z,61.49
2019-05-25T20:04:23.364Z,61.70
2019-05-25T20:06:30.123Z,61.59
2019-05-25T20:08:37.414Z,61.87
2019-05-25T20:10:44.074Z,61.80
2019-05-25T20:12:50.447Z,61.98
2019-05-25T20:14:56.852Z,62.30
2019-05-25T20:17:03.787Z,62.02
2019-05-25T20:19:10.154Z,62.23
2019-05-25T20:21:16.810Z,62.31
2019-05-25T20:23:24.718Z,62.37
2019-05-25T20:25:31.077Z,62.56
2019-05-25T20:27:39.067Z,62.60
2019-05-25T20:29:45.361Z,62.79
2019-05-25T20:31:52.107Z,62.77
2019-05-25T20:33:58.488Z,62.99
2019-05-25T20:36:05.660Z,63.51
2019-05-25T20:38:12.683Z,63.39
2019-05-25T20:40:19.307Z,63.74
2019-05-25T20:42:25.570Z,63.83
2019-05-25T20:44:32.055Z,63.75
2019-05-25T20:46:38.387Z,63.91
2019-05-25T20:48:45.168Z,65.15
2019-05-25T20:50:52.966Z,64.43
2019-05-25T20:53:00.949Z,64.72
2019-05-25T20:55:08.836Z,66.08
2019-05-25T20:57:15.531Z,64.80
2019-05-25T20:59:22.104Z,64.88
2019-05-25T21:01:28.462Z,65.13
2019-05-25T21:03:35.142Z,65.41
2019-05-25T21:05:50.226Z,68.18
2019-05-25T21:07:49.489Z,65.83
2019-05-25T21:09:59.135Z,65.69
2019-05-25T21:12:08.487Z,66.95
2019-05-25T21:14:14.927Z,65.95
2019-05-25T21:16:22.957Z,65.87
2019-05-25T21:18:29.522Z,66.19
2019-05-25T21:20:36.273Z,67.09
2019-05-25T21:22:42.647Z,67.84
2019-05-25T21:24:49.109Z,67.87
2019-05-25T21:26:55.475Z,67.98
2019-05-25T21:29:02.125Z,68.97
2019-05-25T21:31:08.375Z,68.51
2019-05-25T21:33:14.854Z,68.46
2019-05-25T21:35:21.334Z,69.15
2019-05-25T21:37:28.330Z,68.79
2019-05-25T21:39:34.734Z,69.11
2019-05-25T21:41:41.149Z,69.19
2019-05-25T21:43:47.611Z,69.33
2019-05-25T21:45:55.394Z,69.68
2019-05-25T21:48:01.966Z,69.81
2019-05-25T21:50:09.791Z,69.42
2019-05-25T21:52:16.332Z,69.30
2019-05-25T21:54:22.692Z,69.16
2019-05-25T21:56:29.142Z,69.01
2019-05-25T21:58:37.467Z,68.78
2019-05-25T22:00:44.341Z,68.77
2019-05-25T22:02:50.800Z,69.12
2019-05-25T22:04:57.061Z,69.71
2019-05-25T22:07:03.726Z,70.12
2019-05-25T22:09:12.028Z,70.38
2019-05-25T22:11:18.294Z,70.84
2019-05-25T22:13:28.723Z,70.87
2019-05-25T22:15:32.664Z,71.42
2019-05-25T22:17:39.486Z,71.35
2019-05-25T22:19:45.885Z,71.43
2019-05-25T22:21:53.287Z,71.58
2019-05-25T22:23:59.744Z,71.95
2019-05-25T22:26:06.134Z,72.13
2019-05-25T22:28:14.020Z,72.22
2019-05-25T22:30:22.590Z,72.30
2019-05-25T22:32:29.078Z,72.80
2019-05-25T22:34:35.345Z,73.82
2019-05-25T22:36:41.704Z,74.01
2019-05-25T22:38:48.285Z,72.80
2019-05-25T22:40:54.858Z,73.25
2019-05-25T22:43:01.332Z,73.55
2019-05-25T22:45:12.439Z,73.80
2019-05-25T22:47:19.048Z,74.01
2019-05-25T22:49:25.630Z,74.84
2019-05-25T22:51:32.083Z,75.08
2019-05-25T22:53:38.552Z,74.92
2019-05-25T22:55:44.839Z,74.89
2019-05-25T22:57:51.205Z,75.36
2019-05-25T22:59:57.636Z,76.21
2019-05-25T23:02:03.899Z,76.31
2019-05-25T23:04:10.159Z,76.53
2019-05-25T23:06:16.619Z,77.19
2019-05-25T23:08:23.614Z,78.03
2019-05-25T23:10:29.964Z,77.31
2019-05-25T23:12:36.340Z,76.87
2019-05-25T23:14:43.771Z,76.98
2019-05-25T23:16:50.069Z,77.09
2019-05-25T23:18:56.751Z,77.22
2019-05-25T23:21:03.017Z,77.62
2019-05-25T23:23:09.365Z,77.77
2019-05-25T23:25:15.831Z,77.98
2019-05-25T23:27:22.397Z,77.81
2019-05-25T23:29:28.974Z,78.16
2019-05-25T23:31:35.438Z,79.01
2019-05-25T23:33:41.996Z,78.81
2019-05-25T23:35:48.265Z,77.82
2019-05-25T23:37:54.535Z,79.46
2019-05-25T23:40:01.785Z,79.28
2019-05-25T23:42:08.295Z,79.26
2019-05-25T23:44:14.944Z,78.84
2019-05-25T23:46:22.433Z,79.32
2019-05-25T23:48:28.905Z,79.36
2019-05-25T23:50:35.563Z,78.50
2019-05-25T23:52:41.926Z,79.19
2019-05-25T23:54:48.402Z,80.42
2019-05-25T23:56:54.760Z,79.27
2019-05-25T23:59:02.049Z,79.07
